Time;durP1;ratioP1;P1;durP2;ratioP2;P2;SDS_P1;SDS_P2;PMS_P1;PMS_P2;Temp;Humidity;BMP_temperature;BMP_pressure;BME280_temperature;BME280_humidity;BME280_pressure;Samples;Min_cycle;Max_cycle;Signal;HPM_P1;HPM_P2
2022/05/12 00:02:25;;;;;;;6.53;1.23;;;;;;;;;;5063974;28;20432;-72
2022/05/12 00:04:51;;;;;;;1.47;1.40;;;;;;;;;;5064457;28;20445;-72
2022/05/12 00:07:18;;;;;;;1.30;1.27;;;;;;;;;;5065532;28;20463;-72
2022/05/12 00:09:44;;;;;;;1.07;1.07;;;;;;;;;;5067624;28;20483;-76
2022/05/12 00:12:10;;;;;;;1.30;1.30;;;;;;;;;;5065981;28;20782;-72
2022/05/12 00:14:36;;;;;;;3.83;1.30;;;;;;;;;;5068505;28;20425;-72
2022/05/12 00:17:02;;;;;;;1.10;1.10;;;;;;;;;;5065744;28;20516;-74
2022/05/12 00:19:29;;;;;;;5.13;1.10;;;;;;;;;;5066550;28;20516;-74
2022/05/12 00:21:56;;;;;;;1.90;1.37;;;;;;;;;;5065638;28;20417;-73
2022/05/12 00:24:22;;;;;;;2.60;1.50;;;;;;;;;;5069051;28;20475;-72
2022/05/12 00:26:48;;;;;;;1.50;1.50;;;;;;;;;;5064991;28;20829;-73
2022/05/12 00:29:14;;;;;;;4.77;1.47;;;;;;;;;;5067783;28;20496;-72
2022/05/12 00:31:41;;;;;;;3.43;1.60;;;;;;;;;;5063731;28;20853;-73
2022/05/12 00:34:07;;;;;;;7.90;1.20;;;;;;;;;;5064453;28;20441;-73
2022/05/12 00:36:34;;;;;;;9.23;1.10;;;;;;;;;;5063646;28;20437;-72
2022/05/12 00:39:00;;;;;;;1.20;1.20;;;;;;;;;;5067339;28;20452;-73
2022/05/12 00:41:26;;;;;;;1.83;1.00;;;;;;;;;;5064900;28;20808;-71
2022/05/12 00:43:52;;;;;;;3.63;1.40;;;;;;;;;;5064720;28;20437;-73
2022/05/12 00:46:19;;;;;;;4.50;1.40;;;;;;;;;;5062093;28;20436;-72
2022/05/12 00:48:46;;;;;;;1.80;1.40;;;;;;;;;;5059432;28;20616;-74
2022/05/12 00:51:13;;;;;;;3.90;1.40;;;;;;;;;;5065081;28;20429;-73
2022/05/12 00:53:40;;;;;;;5.83;1.17;;;;;;;;;;5064986;28;20460;-75
2022/05/12 00:56:08;;;;;;;2.00;1.50;;;;;;;;;;5066231;28;20421;-73
2022/05/12 00:58:35;;;;;;;3.73;1.43;;;;;;;;;;5069827;28;20437;-72
2022/05/12 01:01:03;;;;;;;1.40;1.40;;;;;;;;;;5065938;28;20936;-74
2022/05/12 01:03:29;;;;;;;1.10;1.10;;;;;;;;;;5069325;28;20937;-72
2022/05/12 01:05:55;;;;;;;1.37;1.23;;;;;;;;;;5070198;28;20469;-73
2022/05/12 01:08:21;;;;;;;2.97;1.60;;;;;;;;;;5067771;28;20521;-72
2022/05/12 01:10:50;;;;;;;2.97;1.30;;;;;;;;;;5065779;28;20930;-73
2022/05/12 01:13:18;;;;;;;2.50;1.20;;;;;;;;;;5065842;28;20453;-73
2022/05/12 01:15:51;;;;;;;2.73;1.23;;;;;;;;;;5068418;28;20438;-72
2022/05/12 01:18:18;;;;;;;1.57;1.57;;;;;;;;;;5069064;28;20795;-73
2022/05/12 01:20:44;;;;;;;2.77;1.40;;;;;;;;;;5069993;28;20444;-73
2022/05/12 01:23:27;;;;;;;1.50;1.50;;;;;;;;;;5069964;28;21560;-73
2022/05/12 01:26:00;;;;;;;5.93;1.90;;;;;;;;;;5066343;28;21021;-73
2022/05/12 01:28:27;;;;;;;2.67;1.23;;;;;;;;;;5070926;28;20565;-72
2022/05/12 01:30:53;;;;;;;1.43;1.10;;;;;;;;;;5069440;28;20449;-73
2022/05/12 01:33:19;;;;;;;2.40;1.60;;;;;;;;;;5070565;28;20429;-72
2022/05/12 01:35:45;;;;;;;1.00;1.00;;;;;;;;;;5068212;28;20448;-73
2022/05/12 01:38:13;;;;;;;2.07;1.27;;;;;;;;;;5066983;28;20491;-73
2022/05/12 01:40:40;;;;;;;1.10;1.10;;;;;;;;;;5068120;28;20445;-73
2022/05/12 01:43:07;;;;;;;1.57;1.47;;;;;;;;;;5068523;28;20429;-73
2022/05/12 01:45:33;;;;;;;1.70;1.60;;;;;;;;;;5069541;28;20433;-73
2022/05/12 01:47:59;;;;;;;1.47;1.47;;;;;;;;;;5068275;28;20462;-73
2022/05/12 01:50:25;;;;;;;1.27;1.27;;;;;;;;;;5069235;28;20507;-73
2022/05/12 01:52:51;;;;;;;1.70;1.60;;;;;;;;;;5066505;28;20944;-72
2022/05/12 01:55:18;;;;;;;1.33;1.33;;;;;;;;;;5068776;28;20438;-73
2022/05/12 01:57:45;;;;;;;1.40;1.40;;;;;;;;;;5070624;28;20517;-74
2022/05/12 02:00:16;;;;;;;1.90;1.80;;;;;;;;;;5062615;28;20457;-74
2022/05/12 02:02:42;;;;;;;2.10;1.40;;;;;;;;;;5065993;28;20448;-73
2022/05/12 02:05:10;;;;;;;1.20;1.20;;;;;;;;;;5070083;28;20430;-72
2022/05/12 02:07:39;;;;;;;2.77;1.30;;;;;;;;;;5043280;28;20449;-73
2022/05/12 02:10:07;;;;;;;5.23;2.07;;;;;;;;;;5046647;28;20482;-73
2022/05/12 02:12:33;;;;;;;1.87;1.77;;;;;;;;;;5061995;28;20768;-73
2022/05/12 02:14:59;;;;;;;2.03;1.27;;;;;;;;;;5061743;28;20936;-73
2022/05/12 02:17:24;;;;;;;1.60;1.50;;;;;;;;;;5068605;28;21080;-74
2022/05/12 02:19:50;;;;;;;4.27;1.33;;;;;;;;;;5068444;28;20459;-73
2022/05/12 02:22:18;;;;;;;1.43;1.33;;;;;;;;;;5069055;28;20524;-72
2022/05/12 02:24:44;;;;;;;2.80;2.17;;;;;;;;;;5068352;28;20441;-72
2022/05/12 02:27:10;;;;;;;1.70;1.70;;;;;;;;;;5066534;28;20444;-72
2022/05/12 02:29:36;;;;;;;3.23;1.77;;;;;;;;;;5070044;28;20493;-73
2022/05/12 02:32:02;;;;;;;3.60;1.33;;;;;;;;;;5065403;28;20516;-73
2022/05/12 02:34:28;;;;;;;2.40;1.40;;;;;;;;;;5068061;28;20433;-73
2022/05/12 02:37:03;;;;;;;1.37;1.33;;;;;;;;;;5068073;28;20953;-73
2022/05/12 02:39:30;;;;;;;2.63;1.50;;;;;;;;;;5068571;28;20814;-72
2022/05/12 02:41:57;;;;;;;1.83;1.30;;;;;;;;;;5066920;28;20421;-76
2022/05/12 02:44:23;;;;;;;7.40;1.70;;;;;;;;;;5067885;28;20434;-73
2022/05/12 02:46:49;;;;;;;4.03;1.97;;;;;;;;;;5066939;28;20487;-75
2022/05/12 02:49:15;;;;;;;1.27;1.20;;;;;;;;;;5068286;28;21031;-73
2022/05/12 02:51:43;;;;;;;3.70;1.50;;;;;;;;;;5066540;28;20982;-72
2022/05/12 02:54:09;;;;;;;3.47;1.33;;;;;;;;;;5067593;28;20430;-74
2022/05/12 02:56:35;;;;;;;2.03;1.93;;;;;;;;;;5067838;28;20449;-75
2022/05/12 02:59:01;;;;;;;1.20;1.20;;;;;;;;;;5064767;28;20947;-73
2022/05/12 03:01:27;;;;;;;1.43;1.33;;;;;;;;;;5063782;28;20812;-71
2022/05/12 03:03:53;;;;;;;1.50;1.40;;;;;;;;;;5067287;28;20777;-72
2022/05/12 03:06:19;;;;;;;1.93;1.23;;;;;;;;;;5068445;28;20856;-73
2022/05/12 03:08:45;;;;;;;1.63;1.53;;;;;;;;;;5066765;28;20464;-72
2022/05/12 03:11:11;;;;;;;4.63;1.63;;;;;;;;;;5061926;28;20796;-72
2022/05/12 03:13:37;;;;;;;1.60;1.50;;;;;;;;;;5068876;28;20439;-72
2022/05/12 03:16:03;;;;;;;6.03;2.13;;;;;;;;;;5067641;28;20530;-72
2022/05/12 03:18:29;;;;;;;1.90;1.80;;;;;;;;;;5069007;28;20933;-73
2022/05/12 03:20:56;;;;;;;1.70;1.60;;;;;;;;;;5065826;28;20511;-75
2022/05/12 03:23:22;;;;;;;8.93;2.20;;;;;;;;;;5070227;28;20480;-74
2022/05/12 03:25:48;;;;;;;1.80;1.70;;;;;;;;;;5067205;28;20421;-75
2022/05/12 03:28:15;;;;;;;1.80;1.63;;;;;;;;;;5065260;28;20437;-73
2022/05/12 03:30:44;;;;;;;1.73;1.67;;;;;;;;;;5064438;28;20524;-74
2022/05/12 03:33:10;;;;;;;6.37;1.10;;;;;;;;;;5067778;28;20450;-74
2022/05/12 03:35:36;;;;;;;9.73;1.90;;;;;;;;;;5067342;28;20425;-75
2022/05/12 03:38:03;;;;;;;1.70;1.60;;;;;;;;;;5068244;28;20437;-73
2022/05/12 03:40:30;;;;;;;5.20;2.07;;;;;;;;;;5064060;28;20445;-73
2022/05/12 03:42:59;;;;;;;3.97;1.43;;;;;;;;;;5065359;28;20432;-72
2022/05/12 03:45:29;;;;;;;1.30;1.30;;;;;;;;;;5067316;28;20437;-73
2022/05/12 03:47:55;;;;;;;3.33;2.00;;;;;;;;;;5066474;28;20430;-68
2022/05/12 03:50:23;;;;;;;1.27;1.27;;;;;;;;;;5067045;28;20485;-68
2022/05/12 03:52:49;;;;;;;6.85;1.50;;;;;;;;;;5065675;28;20409;-70
2022/05/12 03:55:16;;;;;;;2.50;1.80;;;;;;;;;;5063073;28;20179;-74
2022/05/12 03:57:44;;;;;;;2.67;2.03;;;;;;;;;;5068708;28;20438;-73
2022/05/12 04:00:12;;;;;;;1.83;1.83;;;;;;;;;;5065144;28;20787;-76
2022/05/12 04:02:39;;;;;;;6.00;1.50;;;;;;;;;;5063402;28;20434;-75
2022/05/12 04:05:06;;;;;;;1.53;1.43;;;;;;;;;;5064845;28;20449;-75
2022/05/12 04:07:33;;;;;;;1.60;1.50;;;;;;;;;;5068803;28;20445;-76
2022/05/12 04:10:00;;;;;;;8.90;1.97;;;;;;;;;;5067632;28;20485;-75
2022/05/12 04:12:27;;;;;;;1.67;1.57;;;;;;;;;;5064422;28;20475;-76
2022/05/12 04:14:53;;;;;;;6.63;1.70;;;;;;;;;;5066561;28;20440;-75
2022/05/12 04:17:19;;;;;;;1.80;1.70;;;;;;;;;;5066277;28;20413;-76
2022/05/12 04:19:50;;;;;;;1.50;1.40;;;;;;;;;;5068378;28;20434;-75
2022/05/12 04:22:16;;;;;;;2.33;1.70;;;;;;;;;;5066113;28;20903;-73
2022/05/12 04:24:42;;;;;;;2.00;1.47;;;;;;;;;;5067210;28;20944;-75
2022/05/12 04:27:08;;;;;;;4.23;1.90;;;;;;;;;;5065008;28;20434;-75
2022/05/12 04:29:44;;;;;;;3.10;1.70;;;;;;;;;;5065990;28;20559;-75
2022/05/12 04:32:10;;;;;;;2.00;2.00;;;;;;;;;;5067164;28;20424;-75
2022/05/12 04:37:28;;;;;;;4.93;1.63;;;;;;;;;;5065114;28;20436;-73
2022/05/12 04:39:54;;;;;;;3.00;1.67;;;;;;;;;;5070464;28;20464;-73
2022/05/12 04:42:20;;;;;;;6.43;2.33;;;;;;;;;;5066676;28;20425;-77
2022/05/12 04:44:46;;;;;;;6.03;1.07;;;;;;;;;;5070997;28;20432;-76
2022/05/12 04:47:12;;;;;;;2.93;1.73;;;;;;;;;;5070908;28;20425;-76
2022/05/12 04:49:38;;;;;;;2.50;1.50;;;;;;;;;;5070175;28;20488;-73
2022/05/12 04:52:04;;;;;;;3.77;1.57;;;;;;;;;;5069781;28;20485;-73
2022/05/12 04:54:30;;;;;;;5.50;1.87;;;;;;;;;;5068916;28;20449;-73
2022/05/12 04:56:56;;;;;;;1.60;1.50;;;;;;;;;;5069579;28;20436;-73
2022/05/12 04:59:23;;;;;;;2.00;1.90;;;;;;;;;;5069923;28;20449;-74
2022/05/12 05:01:49;;;;;;;7.20;2.13;;;;;;;;;;5065362;28;20437;-76
2022/05/12 05:04:14;;;;;;;2.30;2.10;;;;;;;;;;5069700;28;20437;-76
2022/05/12 05:06:40;;;;;;;1.43;1.43;;;;;;;;;;5069250;28;20469;-72
2022/05/12 05:09:06;;;;;;;1.60;1.50;;;;;;;;;;5071837;28;20480;-74
2022/05/12 05:11:36;;;;;;;3.03;1.67;;;;;;;;;;5067699;28;20435;-75
2022/05/12 05:14:03;;;;;;;2.00;2.00;;;;;;;;;;5069820;28;20491;-74
2022/05/12 05:16:29;;;;;;;2.07;1.70;;;;;;;;;;5069088;28;20444;-74
2022/05/12 05:18:56;;;;;;;6.07;1.57;;;;;;;;;;5067047;28;20508;-77
2022/05/12 05:21:22;;;;;;;2.20;2.10;;;;;;;;;;5071015;28;20435;-72
2022/05/12 05:23:48;;;;;;;1.97;1.87;;;;;;;;;;5065383;28;20508;-72
2022/05/12 05:26:14;;;;;;;9.30;1.93;;;;;;;;;;5068246;28;20442;-73
2022/05/12 05:28:40;;;;;;;3.47;1.63;;;;;;;;;;5068340;28;20468;-74
2022/05/12 05:31:06;;;;;;;1.50;1.50;;;;;;;;;;5067006;28;20460;-73
2022/05/12 05:33:32;;;;;;;9.03;1.90;;;;;;;;;;5062020;28;21734;-73
2022/05/12 05:35:58;;;;;;;4.77;3.27;;;;;;;;;;5064337;28;20598;-72
2022/05/12 05:38:25;;;;;;;7.20;1.67;;;;;;;;;;5069129;28;20425;-72
2022/05/12 05:40:51;;;;;;;5.43;1.70;;;;;;;;;;5067650;28;20429;-73
2022/05/12 05:43:17;;;;;;;2.57;1.57;;;;;;;;;;5063674;28;20510;-73
2022/05/12 05:45:44;;;;;;;8.23;1.87;;;;;;;;;;5069753;28;20498;-73
2022/05/12 05:48:11;;;;;;;1.57;1.50;;;;;;;;;;5068388;28;20468;-72
2022/05/12 05:53:24;;;;;;;2.10;1.90;;;;;;;;;;5058456;28;20976;-74
2022/05/12 05:55:50;;;;;;;1.70;1.50;;;;;;;;;;5067832;28;20445;-75
2022/05/12 05:58:16;;;;;;;4.40;2.30;;;;;;;;;;5064798;28;20425;-72
2022/05/12 06:00:43;;;;;;;1.80;1.70;;;;;;;;;;5064009;28;20438;-76
2022/05/12 06:03:10;;;;;;;5.17;1.60;;;;;;;;;;5065803;28;20488;-75
2022/05/12 06:05:36;;;;;;;5.23;1.93;;;;;;;;;;5070088;28;20973;-77
2022/05/12 06:08:03;;;;;;;4.63;2.20;;;;;;;;;;5068484;28;21174;-76
2022/05/12 06:10:29;;;;;;;14.07;2.27;;;;;;;;;;5067683;28;20481;-74
2022/05/12 06:12:55;;;;;;;2.27;2.07;;;;;;;;;;5060824;28;21016;-76
2022/05/12 06:15:22;;;;;;;3.43;2.20;;;;;;;;;;5066557;28;20430;-76
2022/05/12 06:17:48;;;;;;;7.13;2.30;;;;;;;;;;5064624;28;20440;-78
2022/05/12 06:20:14;;;;;;;3.00;2.00;;;;;;;;;;5067223;28;20447;-76
2022/05/12 06:22:41;;;;;;;9.00;1.83;;;;;;;;;;5067310;28;20437;-75
2022/05/12 06:25:09;;;;;;;2.13;2.03;;;;;;;;;;5065615;28;20804;-76
2022/05/12 06:27:35;;;;;;;4.10;2.30;;;;;;;;;;5065917;28;20440;-76
2022/05/12 06:30:01;;;;;;;2.00;1.90;;;;;;;;;;5068266;28;20485;-76
2022/05/12 06:32:27;;;;;;;4.33;1.80;;;;;;;;;;5067102;28;20430;-74
2022/05/12 06:34:54;;;;;;;3.20;2.00;;;;;;;;;;5067686;28;20441;-74
2022/05/12 06:37:20;;;;;;;5.50;2.20;;;;;;;;;;5069100;28;20430;-73
2022/05/12 06:39:46;;;;;;;2.80;1.63;;;;;;;;;;5062379;28;20438;-72
2022/05/12 06:42:13;;;;;;;3.63;2.00;;;;;;;;;;5067460;28;20901;-74
2022/05/12 06:44:39;;;;;;;6.80;2.77;;;;;;;;;;5066285;28;20834;-76
2022/05/12 06:47:09;;;;;;;2.87;2.20;;;;;;;;;;5068406;28;20449;-76
2022/05/12 06:49:36;;;;;;;1.43;1.43;;;;;;;;;;5068447;28;20496;-78
2022/05/12 06:52:05;;;;;;;2.00;1.83;;;;;;;;;;5064675;28;20425;-76
2022/05/12 06:54:31;;;;;;;4.27;2.10;;;;;;;;;;5065326;28;20886;-77
2022/05/12 06:56:57;;;;;;;3.60;2.07;;;;;;;;;;5066930;28;20459;-77
2022/05/12 06:59:23;;;;;;;11.57;2.33;;;;;;;;;;5068572;28;20959;-76
2022/05/12 07:01:48;;;;;;;5.40;1.67;;;;;;;;;;5069622;28;20444;-75
2022/05/12 07:04:14;;;;;;;1.73;1.70;;;;;;;;;;5065378;28;20433;-76
2022/05/12 07:06:40;;;;;;;3.43;1.73;;;;;;;;;;5069590;28;20445;-76
2022/05/12 07:09:06;;;;;;;1.80;1.73;;;;;;;;;;5069076;28;20516;-73
2022/05/12 07:11:32;;;;;;;3.73;2.40;;;;;;;;;;5068651;28;20421;-76
2022/05/12 07:13:58;;;;;;;4.17;1.90;;;;;;;;;;5064854;28;20442;-76
2022/05/12 07:16:24;;;;;;;3.23;2.23;;;;;;;;;;5065395;28;20418;-76
2022/05/12 07:18:50;;;;;;;4.90;2.57;;;;;;;;;;5070040;28;20548;-77
2022/05/12 07:26:47;;;;;;;10.40;2.67;;;;;;;;;;5069273;28;20404;-75
2022/05/12 07:29:18;;;;;;;2.10;2.00;;;;;;;;;;5066522;28;20472;-74
2022/05/12 07:31:44;;;;;;;4.63;1.87;;;;;;;;;;5060480;28;20430;-76
2022/05/12 07:34:10;;;;;;;5.70;1.70;;;;;;;;;;5064892;28;20426;-77
2022/05/12 07:36:38;;;;;;;2.60;2.40;;;;;;;;;;5063460;28;20493;-76
2022/05/12 07:39:05;;;;;;;4.23;2.40;;;;;;;;;;5064625;28;20901;-75
2022/05/12 07:41:31;;;;;;;5.07;2.10;;;;;;;;;;5066479;28;20432;-77
2022/05/12 07:43:58;;;;;;;4.00;2.30;;;;;;;;;;5064055;28;20441;-76
2022/05/12 07:46:25;;;;;;;5.33;2.60;;;;;;;;;;5058680;28;20444;-77
2022/05/12 07:48:52;;;;;;;2.27;2.10;;;;;;;;;;5063079;28;20493;-75
2022/05/12 07:51:18;;;;;;;12.73;2.80;;;;;;;;;;5069279;28;20437;-77
2022/05/12 07:53:47;;;;;;;4.40;1.93;;;;;;;;;;5065308;28;20421;-75
2022/05/12 07:56:13;;;;;;;11.20;2.40;;;;;;;;;;5066319;28;20938;-76
2022/05/12 07:58:39;;;;;;;5.40;2.90;;;;;;;;;;5066936;28;20799;-74
2022/05/12 08:01:06;;;;;;;2.20;2.10;;;;;;;;;;5061997;28;20438;-76
2022/05/12 08:03:32;;;;;;;21.03;1.90;;;;;;;;;;5066564;28;20430;-77
2022/05/12 08:06:02;;;;;;;10.70;2.53;;;;;;;;;;5068611;28;20430;-78
2022/05/12 08:08:28;;;;;;;7.50;1.90;;;;;;;;;;5071253;28;20433;-76
2022/05/12 08:10:54;;;;;;;2.50;2.30;;;;;;;;;;5071742;28;20534;-77
2022/05/12 08:13:21;;;;;;;11.87;2.40;;;;;;;;;;5064081;28;20425;-76
2022/05/12 08:15:49;;;;;;;7.07;2.07;;;;;;;;;;5072409;28;20507;-74
2022/05/12 08:18:19;;;;;;;9.23;1.90;;;;;;;;;;5070618;28;20800;-74
2022/05/12 08:20:45;;;;;;;5.80;2.40;;;;;;;;;;5072010;28;20437;-75
2022/05/12 08:23:12;;;;;;;7.53;2.40;;;;;;;;;;5070836;28;20429;-77
2022/05/12 08:25:38;;;;;;;6.83;2.00;;;;;;;;;;5068480;28;20437;-77
2022/05/12 08:28:04;;;;;;;6.63;2.00;;;;;;;;;;5072527;28;20429;-77
2022/05/12 08:30:31;;;;;;;9.60;1.90;;;;;;;;;;5070002;28;20531;-78
2022/05/12 08:32:57;;;;;;;8.27;2.30;;;;;;;;;;5072158;28;20429;-77
2022/05/12 08:35:23;;;;;;;7.50;2.03;;;;;;;;;;5072285;28;20947;-77
2022/05/12 08:37:49;;;;;;;5.67;2.40;;;;;;;;;;5072417;28;20449;-76
2022/05/12 08:40:29;;;;;;;4.57;2.13;;;;;;;;;;5072688;28;20429;-77
2022/05/12 08:42:55;;;;;;;4.77;2.37;;;;;;;;;;5071619;28;20791;-77
2022/05/12 08:45:23;;;;;;;4.30;2.67;;;;;;;;;;5069715;28;20438;-78
2022/05/12 08:47:50;;;;;;;2.10;2.00;;;;;;;;;;5072037;28;20932;-77
2022/05/12 08:50:28;;;;;;;2.80;1.63;;;;;;;;;;5072370;28;20483;-78
2022/05/12 08:53:03;;;;;;;3.90;2.73;;;;;;;;;;5072807;28;20424;-78
2022/05/12 08:55:30;;;;;;;7.00;2.37;;;;;;;;;;5070426;28;20478;-77
2022/05/12 08:58:05;;;;;;;3.10;1.67;;;;;;;;;;5067250;28;20943;-77
2022/05/12 09:00:40;;;;;;;4.47;1.90;;;;;;;;;;5072061;28;20789;-77
2022/05/12 09:03:25;;;;;;;2.70;2.50;;;;;;;;;;5072161;28;20425;-76
2022/05/12 09:06:03;;;;;;;8.37;1.90;;;;;;;;;;5071767;28;20413;-76
2022/05/12 09:08:48;;;;;;;6.20;2.73;;;;;;;;;;5070448;28;20461;-78
2022/05/12 09:11:21;;;;;;;4.87;2.60;;;;;;;;;;5071858;28;20475;-76
2022/05/12 09:13:48;;;;;;;6.80;1.90;;;;;;;;;;5072158;28;20441;-75
2022/05/12 09:16:20;;;;;;;3.50;2.60;;;;;;;;;;5069798;28;20429;-74
2022/05/12 09:18:46;;;;;;;2.70;2.50;;;;;;;;;;5070768;28;20456;-77
2022/05/12 09:21:18;;;;;;;4.90;2.00;;;;;;;;;;5068225;28;20433;-77
2022/05/12 09:23:44;;;;;;;6.00;2.70;;;;;;;;;;5070073;28;20425;-78
2022/05/12 09:26:28;;;;;;;7.53;2.50;;;;;;;;;;5071440;28;20429;-74
2022/05/12 09:29:06;;;;;;;4.97;2.07;;;;;;;;;;5071424;28;20473;-77
2022/05/12 09:31:32;;;;;;;5.83;2.30;;;;;;;;;;5071727;28;20413;-77
2022/05/12 09:34:11;;;;;;;7.73;2.70;;;;;;;;;;5067111;28;20442;-77
2022/05/12 09:36:37;;;;;;;8.60;2.63;;;;;;;;;;5063689;28;21048;-77
2022/05/12 09:39:03;;;;;;;5.30;2.40;;;;;;;;;;5071182;28;20410;-77
2022/05/12 09:41:39;;;;;;;6.80;2.20;;;;;;;;;;5071145;28;20452;-79
2022/05/12 09:44:15;;;;;;;8.50;2.50;;;;;;;;;;5071435;28;20826;-77
2022/05/12 09:46:42;;;;;;;8.10;2.60;;;;;;;;;;5067632;28;20812;-78
2022/05/12 09:49:21;;;;;;;6.70;2.27;;;;;;;;;;5066805;28;20508;-77
2022/05/12 09:51:47;;;;;;;11.10;3.73;;;;;;;;;;5062180;28;20449;-77
2022/05/12 09:54:15;;;;;;;11.33;3.10;;;;;;;;;;5071300;28;20491;-76
2022/05/12 09:56:44;;;;;;;5.73;2.07;;;;;;;;;;5067106;28;20473;-75
2022/05/12 09:59:16;;;;;;;2.67;2.50;;;;;;;;;;5067357;28;20434;-77
2022/05/12 10:02:08;;;;;;;3.23;2.50;;;;;;;;;;5066367;28;20445;-74
2022/05/12 10:10:10;;;;;;;3.00;2.70;;;;;;;;;;5070178;28;20502;-78
2022/05/12 10:12:39;;;;;;;4.97;2.60;;;;;;;;;;5067349;28;20434;-77
2022/05/12 10:15:17;;;;;;;8.70;2.40;;;;;;;;;;5067467;28;20437;-78
2022/05/12 10:17:58;;;;;;;5.50;3.30;;;;;;;;;;5067504;28;20430;-76
2022/05/12 10:20:25;;;;;;;6.80;3.30;;;;;;;;;;5068500;28;20443;-77
2022/05/12 10:22:54;;;;;;;5.33;2.87;;;;;;;;;;5067362;28;20222;-77
2022/05/12 10:25:39;;;;;;;3.37;3.20;;;;;;;;;;5066499;28;20426;-77
2022/05/12 10:28:10;;;;;;;4.57;3.87;;;;;;;;;;5067347;28;20460;-85
2022/05/12 10:30:39;;;;;;;6.77;3.40;;;;;;;;;;5064667;28;20485;-68
2022/05/12 10:33:05;;;;;;;4.63;2.60;;;;;;;;;;5066124;28;20433;-68
2022/05/12 10:35:38;;;;;;;3.10;2.90;;;;;;;;;;5065028;28;20446;-68
2022/05/12 10:38:04;;;;;;;3.60;3.27;;;;;;;;;;5064136;28;20445;-67
2022/05/12 10:40:38;;;;;;;8.60;4.93;;;;;;;;;;5070021;28;21444;-68
2022/05/12 10:43:07;;;;;;;3.73;3.37;;;;;;;;;;5066623;28;20962;-66
2022/05/12 10:45:56;;;;;;;18.93;12.97;;;;;;;;;;5065372;28;20924;-68
2022/05/12 10:48:28;;;;;;;5.50;3.20;;;;;;;;;;5067618;28;20984;-66
2022/05/12 10:50:54;;;;;;;3.67;3.40;;;;;;;;;;5070279;28;20434;-68
2022/05/12 10:53:29;;;;;;;18.33;10.50;;;;;;;;;;5067290;28;21005;-76
2022/05/12 10:56:08;;;;;;;5.40;3.43;;;;;;;;;;5065357;28;20875;-73
2022/05/12 10:58:46;;;;;;;18.53;3.50;;;;;;;;;;5063155;28;20445;-77
2022/05/12 11:01:23;;;;;;;3.70;3.50;;;;;;;;;;5066868;28;20433;-77
2022/05/12 11:03:58;;;;;;;3.23;3.13;;;;;;;;;;5066680;28;20421;-77
2022/05/12 11:06:28;;;;;;;3.20;3.10;;;;;;;;;;5069141;28;20417;-76
2022/05/12 11:08:58;;;;;;;5.03;3.50;;;;;;;;;;5065482;28;20471;-68
2022/05/12 11:11:33;;;;;;;10.37;3.17;;;;;;;;;;5067159;28;20991;-67
2022/05/12 11:13:59;;;;;;;5.60;3.97;;;;;;;;;;5065922;28;20433;-77
2022/05/12 11:16:29;;;;;;;7.50;4.10;;;;;;;;;;5061486;28;20479;-72
2022/05/12 11:19:03;;;;;;;3.80;3.17;;;;;;;;;;5058496;28;20187;-75
2022/05/12 11:21:30;;;;;;;4.03;3.83;;;;;;;;;;5064517;28;20510;-77
2022/05/12 11:24:13;;;;;;;3.83;3.50;;;;;;;;;;5059912;28;20480;-73
2022/05/12 11:26:39;;;;;;;4.73;3.63;;;;;;;;;;5062642;28;21162;-74
2022/05/12 11:31:52;;;;;;;5.30;3.17;;;;;;;;;;5065703;28;20428;-79
2022/05/12 11:34:21;;;;;;;4.33;2.93;;;;;;;;;;5068103;28;20426;-76
2022/05/12 11:36:48;;;;;;;6.90;3.60;;;;;;;;;;5064505;28;20195;-77
2022/05/12 11:39:26;;;;;;;8.43;3.20;;;;;;;;;;5065833;28;20540;-78
2022/05/12 11:42:13;;;;;;;3.87;3.47;;;;;;;;;;5061654;28;20924;-80
2022/05/12 11:44:58;;;;;;;6.60;3.70;;;;;;;;;;5049992;28;20532;-76
2022/05/12 11:47:43;;;;;;;5.93;3.17;;;;;;;;;;5065495;28;20428;-80
2022/05/12 11:50:13;;;;;;;5.43;4.20;;;;;;;;;;5062627;28;20493;-68
2022/05/12 11:52:53;;;;;;;3.13;2.83;;;;;;;;;;5066172;28;20536;-73
2022/05/12 11:55:22;;;;;;;6.30;3.77;;;;;;;;;;5066119;28;20802;-77
2022/05/12 11:57:57;;;;;;;3.47;3.07;;;;;;;;;;5057521;28;20472;-76
2022/05/12 12:00:36;;;;;;;3.17;2.97;;;;;;;;;;5060956;28;20425;-78
2022/05/12 12:03:22;;;;;;;5.03;3.43;;;;;;;;;;5066559;28;20562;-77
2022/05/12 12:05:48;;;;;;;3.40;3.20;;;;;;;;;;5067182;28;20428;-78
2022/05/12 12:08:34;;;;;;;4.93;3.13;;;;;;;;;;5064326;28;20441;-78
2022/05/12 12:11:15;;;;;;;3.60;3.30;;;;;;;;;;5062308;28;20945;-74
2022/05/12 12:13:44;;;;;;;5.20;3.00;;;;;;;;;;5065258;28;20475;-77
2022/05/12 12:16:11;;;;;;;9.00;2.83;;;;;;;;;;5064981;28;20500;-76
2022/05/12 12:18:37;;;;;;;3.77;2.90;;;;;;;;;;5066385;28;20941;-72
2022/05/12 12:21:22;;;;;;;3.83;2.60;;;;;;;;;;5062606;28;20449;-75
2022/05/12 12:24:03;;;;;;;3.37;3.17;;;;;;;;;;5066748;28;20575;-76
2022/05/12 12:26:36;;;;;;;3.13;2.93;;;;;;;;;;5066842;28;20477;-74
2022/05/12 12:29:17;;;;;;;3.53;2.63;;;;;;;;;;5061196;28;20503;-77
2022/05/12 12:31:44;;;;;;;3.20;2.70;;;;;;;;;;5062894;28;20434;-77
2022/05/12 12:34:31;;;;;;;4.00;3.10;;;;;;;;;;5063487;28;20980;-77
2022/05/12 12:37:01;;;;;;;4.60;4.30;;;;;;;;;;5060722;28;20921;-77
2022/05/12 12:39:50;;;;;;;3.47;3.17;;;;;;;;;;5066539;28;20444;-76
2022/05/12 12:42:22;;;;;;;3.63;3.27;;;;;;;;;;5064868;28;20460;-76
2022/05/12 12:44:50;;;;;;;12.03;3.10;;;;;;;;;;5066657;28;20430;-76
2022/05/12 12:47:23;;;;;;;7.50;3.27;;;;;;;;;;5063026;28;20449;-73
2022/05/12 12:49:51;;;;;;;6.10;2.70;;;;;;;;;;5066286;28;20857;-77
2022/05/12 12:52:21;;;;;;;5.47;3.20;;;;;;;;;;5065685;28;20444;-78
2022/05/12 12:57:44;;;;;;;3.00;2.80;;;;;;;;;;5071146;28;20451;-76
2022/05/12 13:00:14;;;;;;;2.57;2.47;;;;;;;;;;5068181;28;20424;-71
2022/05/12 13:02:44;;;;;;;4.23;3.27;;;;;;;;;;5060932;28;20995;-73
2022/05/12 13:05:15;;;;;;;7.53;3.50;;;;;;;;;;5062087;28;20428;-74
2022/05/12 13:07:42;;;;;;;3.27;3.00;;;;;;;;;;5063852;28;20437;-75
2022/05/12 13:10:10;;;;;;;11.23;4.43;;;;;;;;;;5065476;28;20586;-72
2022/05/12 13:12:36;;;;;;;3.53;3.23;;;;;;;;;;5068928;28;20451;-73
2022/05/12 13:15:13;;;;;;;6.90;3.40;;;;;;;;;;5064282;28;20444;-72
2022/05/12 13:17:46;;;;;;;4.47;3.67;;;;;;;;;;5062538;28;20453;-80
2022/05/12 13:20:14;;;;;;;14.47;4.23;;;;;;;;;;5066162;28;20790;-74
2022/05/12 13:22:56;;;;;;;9.13;3.60;;;;;;;;;;5066534;28;20522;-75
2022/05/12 13:25:32;;;;;;;2.40;2.40;;;;;;;;;;5067837;28;20891;-72
2022/05/12 13:27:59;;;;;;;3.40;3.20;;;;;;;;;;5069196;28;20439;-72
2022/05/12 13:30:34;;;;;;;6.43;3.33;;;;;;;;;;5068695;28;20491;-76
2022/05/12 13:33:05;;;;;;;3.43;3.33;;;;;;;;;;5066597;28;20429;-75
2022/05/12 13:35:34;;;;;;;3.73;3.43;;;;;;;;;;5067544;28;20563;-74
2022/05/12 13:38:03;;;;;;;3.93;3.57;;;;;;;;;;5066428;28;20791;-77
2022/05/12 13:40:46;;;;;;;10.50;4.50;;;;;;;;;;5069056;28;20434;-77
2022/05/12 13:43:16;;;;;;;4.60;3.90;;;;;;;;;;5069722;28;20452;-73
2022/05/12 13:45:43;;;;;;;4.17;3.90;;;;;;;;;;5069065;28;20423;-77
2022/05/12 13:48:14;;;;;;;4.07;3.87;;;;;;;;;;5067627;28;20441;-75
2022/05/12 13:50:51;;;;;;;8.10;2.97;;;;;;;;;;5069621;28;20485;-73
2022/05/12 13:53:43;;;;;;;4.30;3.77;;;;;;;;;;5070904;28;20849;-72
2022/05/12 13:56:12;;;;;;;4.77;4.47;;;;;;;;;;5066312;28;20789;-76
2022/05/12 13:58:49;;;;;;;3.87;3.77;;;;;;;;;;5064225;28;20469;-72
2022/05/12 14:01:30;;;;;;;4.40;3.67;;;;;;;;;;5069913;28;20455;-71
2022/05/12 14:04:10;;;;;;;8.90;4.67;;;;;;;;;;5068409;28;20472;-71
2022/05/12 14:06:40;;;;;;;5.70;3.43;;;;;;;;;;5069607;28;20465;-72
2022/05/12 14:09:07;;;;;;;5.30;4.53;;;;;;;;;;5069948;28;20906;-74
2022/05/12 14:11:33;;;;;;;4.20;3.80;;;;;;;;;;5069455;28;20441;-75
2022/05/12 14:19:30;;;;;;;4.53;3.50;;;;;;;;;;5070222;28;20561;-74
2022/05/12 14:21:57;;;;;;;4.40;4.10;;;;;;;;;;5067780;28;21004;-75
2022/05/12 14:24:24;;;;;;;6.13;4.17;;;;;;;;;;5070363;28;20480;-72
2022/05/12 14:26:50;;;;;;;2.77;2.70;;;;;;;;;;5062751;28;21441;-78
2022/05/12 14:29:17;;;;;;;3.77;3.57;;;;;;;;;;5063021;28;20929;-74
2022/05/12 14:31:45;;;;;;;9.93;4.23;;;;;;;;;;5065496;28;20447;-72
2022/05/12 14:34:11;;;;;;;4.47;4.03;;;;;;;;;;5067131;28;20835;-77
2022/05/12 14:36:37;;;;;;;7.13;4.10;;;;;;;;;;5065491;28;20465;-77
2022/05/12 14:39:04;;;;;;;4.17;3.47;;;;;;;;;;5060426;28;20922;-74
2022/05/12 14:41:30;;;;;;;6.93;3.97;;;;;;;;;;5067936;28;20486;-76
2022/05/12 14:43:56;;;;;;;9.23;4.60;;;;;;;;;;5067203;28;20512;-77
2022/05/12 14:46:23;;;;;;;10.70;4.70;;;;;;;;;;5067659;28;20426;-73
2022/05/12 14:48:50;;;;;;;5.20;4.20;;;;;;;;;;5065029;28;20554;-76
2022/05/12 14:51:17;;;;;;;3.37;3.17;;;;;;;;;;5064352;28;20536;-76
2022/05/12 14:53:43;;;;;;;8.33;4.60;;;;;;;;;;5066667;28;20498;-74
2022/05/12 14:56:09;;;;;;;4.80;4.50;;;;;;;;;;5065942;28;20445;-72
2022/05/12 14:58:35;;;;;;;13.03;5.33;;;;;;;;;;5064728;28;20783;-74
2022/05/12 15:01:04;;;;;;;9.60;5.07;;;;;;;;;;5065984;28;20893;-72
2022/05/12 15:03:32;;;;;;;24.20;6.60;;;;;;;;;;5067059;28;20428;-74
2022/05/12 15:05:58;;;;;;;11.33;6.50;;;;;;;;;;5068943;28;20429;-74
2022/05/12 15:08:24;;;;;;;10.63;5.30;;;;;;;;;;5067314;28;20434;-78
2022/05/12 15:10:50;;;;;;;5.13;4.83;;;;;;;;;;5068341;28;20489;-76
2022/05/12 15:13:16;;;;;;;8.97;5.63;;;;;;;;;;5063358;28;20270;-72
2022/05/12 15:15:42;;;;;;;5.67;5.17;;;;;;;;;;5065677;28;20486;-75
2022/05/12 15:18:09;;;;;;;14.83;6.20;;;;;;;;;;5064356;28;20524;-72
2022/05/12 15:20:35;;;;;;;9.97;8.00;;;;;;;;;;5067384;28;20425;-72
2022/05/12 15:23:01;;;;;;;11.20;6.70;;;;;;;;;;5066913;28;20420;-75